sensor_id;sensor_type;location;lat;lon;timestamp;P1;durP1;ratioP1;P2;durP2;ratioP2
15358;SDS011;7779;49.596;11.070;2024-03-17T00:00:23;3.67;;;1.20;;
15358;SDS011;7779;49.596;11.070;2024-03-17T00:02:49;1.80;;;1.20;;
15358;SDS011;7779;49.596;11.070;2024-03-17T00:05:14;2.00;;;1.07;;
15358;SDS011;7779;49.596;11.070;2024-03-17T00:07:40;4.13;;;1.50;;
15358;SDS011;7779;49.596;11.070;2024-03-17T00:10:06;1.30;;;1.10;;
15358;SDS011;7779;49.596;11.070;2024-03-17T00:12:34;1.33;;;1.23;;
15358;SDS011;7779;49.596;11.070;2024-03-17T00:14:59;2.53;;;1.07;;
15358;SDS011;7779;49.596;11.070;2024-03-17T00:17:25;4.20;;;1.00;;
15358;SDS011;7779;49.596;11.070;2024-03-17T00:19:51;1.83;;;1.07;;
15358;SDS011;7779;49.596;11.070;2024-03-17T00:22:17;1.50;;;1.07;;
15358;SDS011;7779;49.596;11.070;2024-03-17T00:24:43;1.00;;;0.73;;
15358;SDS011;7779;49.596;11.070;2024-03-17T00:27:10;1.90;;;1.00;;
15358;SDS011;7779;49.596;11.070;2024-03-17T00:29:36;1.23;;;1.00;;
15358;SDS011;7779;49.596;11.070;2024-03-17T00:32:05;1.83;;;0.90;;
15358;SDS011;7779;49.596;11.070;2024-03-17T00:34:31;1.60;;;1.00;;
15358;SDS011;7779;49.596;11.070;2024-03-17T00:36:57;1.43;;;0.90;;
15358;SDS011;7779;49.596;11.070;2024-03-17T00:39:24;1.57;;;0.83;;
15358;SDS011;7779;49.596;11.070;2024-03-17T00:41:50;1.10;;;1.00;;
15358;SDS011;7779;49.596;11.070;2024-03-17T00:44:16;0.77;;;0.70;;
15358;SDS011;7779;49.596;11.070;2024-03-17T00:46:42;1.27;;;1.03;;
15358;SDS011;7779;49.596;11.070;2024-03-17T00:49:09;1.17;;;0.73;;
15358;SDS011;7779;49.596;11.070;2024-03-17T00:51:35;1.13;;;1.00;;
15358;SDS011;7779;49.596;11.070;2024-03-17T00:54:01;0.90;;;0.80;;
15358;SDS011;7779;49.596;11.070;2024-03-17T00:56:27;3.23;;;0.90;;
15358;SDS011;7779;49.596;11.070;2024-03-17T00:58:53;1.13;;;0.80;;
15358;SDS011;7779;49.596;11.070;2024-03-17T01:01:18;1.80;;;1.10;;
15358;SDS011;7779;49.596;11.070;2024-03-17T01:03:45;1.80;;;0.80;;
15358;SDS011;7779;49.596;11.070;2024-03-17T01:06:11;1.47;;;0.80;;
15358;SDS011;7779;49.596;11.070;2024-03-17T01:08:37;2.83;;;0.90;;
15358;SDS011;7779;49.596;11.070;2024-03-17T01:11:03;1.03;;;0.80;;
15358;SDS011;7779;49.596;11.070;2024-03-17T01:13:31;1.40;;;0.90;;
15358;SDS011;7779;49.596;11.070;2024-03-17T01:15:59;2.00;;;0.87;;
15358;SDS011;7779;49.596;11.070;2024-03-17T01:18:24;1.53;;;0.80;;
15358;SDS011;7779;49.596;11.070;2024-03-17T01:20:50;1.67;;;0.80;;
15358;SDS011;7779;49.596;11.070;2024-03-17T01:23:16;1.23;;;1.00;;
15358;SDS011;7779;49.596;11.070;2024-03-17T01:25:42;2.57;;;0.70;;
15358;SDS011;7779;49.596;11.070;2024-03-17T01:28:07;1.00;;;0.53;;
15358;SDS011;7779;49.596;11.070;2024-03-17T01:30:33;2.03;;;0.60;;
15358;SDS011;7779;49.596;11.070;2024-03-17T01:32:59;2.93;;;0.80;;
15358;SDS011;7779;49.596;11.070;2024-03-17T01:35:26;0.80;;;0.63;;
15358;SDS011;7779;49.596;11.070;2024-03-17T01:37:52;1.13;;;0.90;;
15358;SDS011;7779;49.596;11.070;2024-03-17T01:40:18;1.90;;;0.87;;
15358;SDS011;7779;49.596;11.070;2024-03-17T01:42:44;2.70;;;0.70;;
15358;SDS011;7779;49.596;11.070;2024-03-17T01:47:56;0.90;;;0.60;;
15358;SDS011;7779;49.596;11.070;2024-03-17T01:50:28;0.77;;;0.63;;
15358;SDS011;7779;49.596;11.070;2024-03-17T01:53:04;0.90;;;0.80;;
15358;SDS011;7779;49.596;11.070;2024-03-17T01:55:35;2.40;;;0.90;;
15358;SDS011;7779;49.596;11.070;2024-03-17T01:58:04;1.47;;;0.83;;
15358;SDS011;7779;49.596;11.070;2024-03-17T02:00:35;1.53;;;0.60;;
15358;SDS011;7779;49.596;11.070;2024-03-17T02:03:03;1.43;;;0.70;;
15358;SDS011;7779;49.596;11.070;2024-03-17T02:05:31;1.20;;;0.70;;
15358;SDS011;7779;49.596;11.070;2024-03-17T02:07:59;0.90;;;0.80;;
15358;SDS011;7779;49.596;11.070;2024-03-17T02:10:25;2.47;;;0.67;;
15358;SDS011;7779;49.596;11.070;2024-03-17T02:12:51;0.63;;;0.57;;
15358;SDS011;7779;49.596;11.070;2024-03-17T02:15:18;1.23;;;0.80;;
15358;SDS011;7779;49.596;11.070;2024-03-17T02:17:44;2.40;;;0.70;;
15358;SDS011;7779;49.596;11.070;2024-03-17T02:20:10;0.90;;;0.80;;
15358;SDS011;7779;49.596;11.070;2024-03-17T02:22:36;0.90;;;0.60;;
15358;SDS011;7779;49.596;11.070;2024-03-17T02:25:03;1.77;;;0.90;;
15358;SDS011;7779;49.596;11.070;2024-03-17T02:27:29;0.93;;;0.80;;
15358;SDS011;7779;49.596;11.070;2024-03-17T02:29:55;1.63;;;0.80;;
15358;SDS011;7779;49.596;11.070;2024-03-17T02:32:21;0.80;;;0.80;;
15358;SDS011;7779;49.596;11.070;2024-03-17T02:34:52;1.77;;;1.07;;
15358;SDS011;7779;49.596;11.070;2024-03-17T02:37:17;1.90;;;1.00;;
15358;SDS011;7779;49.596;11.070;2024-03-17T02:39:43;2.30;;;1.70;;
15358;SDS011;7779;49.596;11.070;2024-03-17T02:42:09;2.33;;;1.40;;
15358;SDS011;7779;49.596;11.070;2024-03-17T02:44:36;1.60;;;1.50;;
15358;SDS011;7779;49.596;11.070;2024-03-17T02:47:04;2.43;;;1.47;;
15358;SDS011;7779;49.596;11.070;2024-03-17T02:49:31;1.73;;;1.33;;
15358;SDS011;7779;49.596;11.070;2024-03-17T02:52:04;1.50;;;1.40;;
15358;SDS011;7779;49.596;11.070;2024-03-17T02:54:35;1.83;;;1.60;;
15358;SDS011;7779;49.596;11.070;2024-03-17T02:57:04;2.53;;;1.50;;
15358;SDS011;7779;49.596;11.070;2024-03-17T02:59:34;1.93;;;1.40;;
15358;SDS011;7779;49.596;11.070;2024-03-17T03:02:00;1.90;;;1.43;;
15358;SDS011;7779;49.596;11.070;2024-03-17T03:04:26;1.87;;;0.87;;
15358;SDS011;7779;49.596;11.070;2024-03-17T03:06:52;1.60;;;1.00;;
15358;SDS011;7779;49.596;11.070;2024-03-17T03:09:18;1.27;;;1.00;;
15358;SDS011;7779;49.596;11.070;2024-03-17T03:11:56;1.87;;;1.10;;
15358;SDS011;7779;49.596;11.070;2024-03-17T03:14:22;2.33;;;0.90;;
15358;SDS011;7779;49.596;11.070;2024-03-17T03:16:48;0.63;;;0.63;;
15358;SDS011;7779;49.596;11.070;2024-03-17T03:19:14;1.20;;;0.80;;
15358;SDS011;7779;49.596;11.070;2024-03-17T03:21:41;1.73;;;0.70;;
15358;SDS011;7779;49.596;11.070;2024-03-17T03:24:07;2.10;;;0.60;;
15358;SDS011;7779;49.596;11.070;2024-03-17T03:26:33;1.80;;;0.83;;
15358;SDS011;7779;49.596;11.070;2024-03-17T03:28:58;1.83;;;0.80;;
15358;SDS011;7779;49.596;11.070;2024-03-17T03:31:24;0.70;;;0.70;;
15358;SDS011;7779;49.596;11.070;2024-03-17T03:33:50;1.10;;;0.70;;
15358;SDS011;7779;49.596;11.070;2024-03-17T03:36:15;1.67;;;1.00;;
15358;SDS011;7779;49.596;11.070;2024-03-17T03:38:46;0.80;;;0.77;;
15358;SDS011;7779;49.596;11.070;2024-03-17T03:41:12;1.60;;;0.70;;
15358;SDS011;7779;49.596;11.070;2024-03-17T03:43:40;1.57;;;0.80;;
15358;SDS011;7779;49.596;11.070;2024-03-17T03:46:06;1.60;;;1.30;;
15358;SDS011;7779;49.596;11.070;2024-03-17T03:48:33;1.07;;;0.90;;
15358;SDS011;7779;49.596;11.070;2024-03-17T03:51:03;1.20;;;1.00;;
15358;SDS011;7779;49.596;11.070;2024-03-17T03:53:33;1.00;;;0.87;;
15358;SDS011;7779;49.596;11.070;2024-03-17T03:55:59;1.63;;;0.97;;
15358;SDS011;7779;49.596;11.070;2024-03-17T03:58:31;1.80;;;0.90;;
15358;SDS011;7779;49.596;11.070;2024-03-17T04:01:06;1.80;;;0.90;;
15358;SDS011;7779;49.596;11.070;2024-03-17T04:03:34;0.80;;;0.63;;
15358;SDS011;7779;49.596;11.070;2024-03-17T04:06:07;0.70;;;0.70;;
15358;SDS011;7779;49.596;11.070;2024-03-17T04:08:35;1.33;;;0.90;;
15358;SDS011;7779;49.596;11.070;2024-03-17T04:11:04;1.40;;;0.90;;
15358;SDS011;7779;49.596;11.070;2024-03-17T04:13:31;1.27;;;0.83;;
15358;SDS011;7779;49.596;11.070;2024-03-17T04:15:58;1.57;;;1.10;;
15358;SDS011;7779;49.596;11.070;2024-03-17T04:18:26;1.73;;;0.93;;
15358;SDS011;7779;49.596;11.070;2024-03-17T04:20:56;0.90;;;0.80;;
15358;SDS011;7779;49.596;11.070;2024-03-17T04:23:23;1.17;;;0.90;;
15358;SDS011;7779;49.596;11.070;2024-03-17T04:25:52;1.17;;;0.83;;
15358;SDS011;7779;49.596;11.070;2024-03-17T04:28:19;2.27;;;0.93;;
15358;SDS011;7779;49.596;11.070;2024-03-17T04:30:45;1.87;;;1.10;;
15358;SDS011;7779;49.596;11.070;2024-03-17T04:33:11;1.90;;;1.00;;
15358;SDS011;7779;49.596;11.070;2024-03-17T04:35:38;1.87;;;1.10;;
15358;SDS011;7779;49.596;11.070;2024-03-17T04:38:05;1.00;;;0.90;;
15358;SDS011;7779;49.596;11.070;2024-03-17T04:40:31;1.17;;;0.90;;
15358;SDS011;7779;49.596;11.070;2024-03-17T04:43:05;1.03;;;0.87;;
15358;SDS011;7779;49.596;11.070;2024-03-17T04:45:31;1.00;;;0.90;;
15358;SDS011;7779;49.596;11.070;2024-03-17T04:47:57;0.93;;;0.70;;
15358;SDS011;7779;49.596;11.070;2024-03-17T04:50:23;2.20;;;0.90;;
15358;SDS011;7779;49.596;11.070;2024-03-17T04:52:49;1.23;;;0.90;;
15358;SDS011;7779;49.596;11.070;2024-03-17T04:55:14;1.60;;;0.97;;
15358;SDS011;7779;49.596;11.070;2024-03-17T04:57:42;1.27;;;0.80;;
15358;SDS011;7779;49.596;11.070;2024-03-17T05:00:09;2.30;;;1.00;;
15358;SDS011;7779;49.596;11.070;2024-03-17T05:02:37;2.60;;;0.90;;
15358;SDS011;7779;49.596;11.070;2024-03-17T05:05:04;2.57;;;1.10;;
15358;SDS011;7779;49.596;11.070;2024-03-17T05:07:32;2.13;;;1.00;;
15358;SDS011;7779;49.596;11.070;2024-03-17T05:09:57;1.27;;;1.00;;
15358;SDS011;7779;49.596;11.070;2024-03-17T05:12:23;1.23;;;1.00;;
15358;SDS011;7779;49.596;11.070;2024-03-17T05:14:49;2.80;;;1.30;;
15358;SDS011;7779;49.596;11.070;2024-03-17T05:17:14;1.20;;;1.10;;
15358;SDS011;7779;49.596;11.070;2024-03-17T05:19:40;1.97;;;1.40;;
15358;SDS011;7779;49.596;11.070;2024-03-17T05:22:07;2.07;;;1.57;;
15358;SDS011;7779;49.596;11.070;2024-03-17T05:24:32;2.63;;;1.60;;
15358;SDS011;7779;49.596;11.070;2024-03-17T05:26:58;1.63;;;1.20;;
15358;SDS011;7779;49.596;11.070;2024-03-17T05:29:24;2.17;;;1.23;;
15358;SDS011;7779;49.596;11.070;2024-03-17T05:31:49;1.67;;;1.30;;
15358;SDS011;7779;49.596;11.070;2024-03-17T05:34:17;1.83;;;1.10;;
15358;SDS011;7779;49.596;11.070;2024-03-17T05:36:42;1.73;;;1.20;;
15358;SDS011;7779;49.596;11.070;2024-03-17T05:39:08;1.80;;;1.17;;
15358;SDS011;7779;49.596;11.070;2024-03-17T05:41:34;1.70;;;1.23;;
15358;SDS011;7779;49.596;11.070;2024-03-17T05:44:00;1.60;;;1.03;;
15358;SDS011;7779;49.596;11.070;2024-03-17T05:46:28;2.30;;;1.50;;
15358;SDS011;7779;49.596;11.070;2024-03-17T05:48:54;2.20;;;1.07;;
15358;SDS011;7779;49.596;11.070;2024-03-17T05:51:21;1.40;;;1.30;;
15358;SDS011;7779;49.596;11.070;2024-03-17T05:53:47;1.20;;;1.10;;
15358;SDS011;7779;49.596;11.070;2024-03-17T05:56:13;3.50;;;1.40;;
15358;SDS011;7779;49.596;11.070;2024-03-17T05:58:41;1.50;;;1.20;;
15358;SDS011;7779;49.596;11.070;2024-03-17T06:01:07;1.77;;;1.20;;
15358;SDS011;7779;49.596;11.070;2024-03-17T06:03:33;2.37;;;1.33;;
15358;SDS011;7779;49.596;11.070;2024-03-17T06:06:03;2.17;;;1.43;;
15358;SDS011;7779;49.596;11.070;2024-03-17T06:08:32;1.50;;;1.33;;
15358;SDS011;7779;49.596;11.070;2024-03-17T06:10:58;1.30;;;1.20;;
15358;SDS011;7779;49.596;11.070;2024-03-17T06:13:25;2.07;;;1.30;;
15358;SDS011;7779;49.596;11.070;2024-03-17T06:15:52;2.07;;;1.57;;
15358;SDS011;7779;49.596;11.070;2024-03-17T06:18:17;1.37;;;1.13;;
15358;SDS011;7779;49.596;11.070;2024-03-17T06:20:44;1.47;;;1.23;;
15358;SDS011;7779;49.596;11.070;2024-03-17T06:23:12;1.67;;;1.50;;
15358;SDS011;7779;49.596;11.070;2024-03-17T06:28:13;1.83;;;1.27;;
15358;SDS011;7779;49.596;11.070;2024-03-17T06:30:41;1.60;;;1.33;;
15358;SDS011;7779;49.596;11.070;2024-03-17T06:33:07;4.10;;;1.43;;
15358;SDS011;7779;49.596;11.070;2024-03-17T06:35:36;1.70;;;1.40;;
15358;SDS011;7779;49.596;11.070;2024-03-17T06:38:02;1.70;;;1.40;;
15358;SDS011;7779;49.596;11.070;2024-03-17T06:40:29;1.67;;;1.53;;
15358;SDS011;7779;49.596;11.070;2024-03-17T06:42:55;1.70;;;1.40;;
15358;SDS011;7779;49.596;11.070;2024-03-17T06:45:21;1.67;;;1.40;;
15358;SDS011;7779;49.596;11.070;2024-03-17T06:47:47;1.50;;;1.33;;
15358;SDS011;7779;49.596;11.070;2024-03-17T06:50:13;2.10;;;1.70;;
15358;SDS011;7779;49.596;11.070;2024-03-17T06:52:40;1.67;;;1.50;;
15358;SDS011;7779;49.596;11.070;2024-03-17T06:55:06;1.27;;;1.17;;
15358;SDS011;7779;49.596;11.070;2024-03-17T06:57:32;2.10;;;1.27;;
15358;SDS011;7779;49.596;11.070;2024-03-17T06:59:59;2.40;;;1.23;;
15358;SDS011;7779;49.596;11.070;2024-03-17T07:02:25;1.60;;;1.33;;
15358;SDS011;7779;49.596;11.070;2024-03-17T07:04:51;2.67;;;1.40;;
15358;SDS011;7779;49.596;11.070;2024-03-17T07:07:17;1.97;;;1.57;;
15358;SDS011;7779;49.596;11.070;2024-03-17T07:09:42;2.43;;;1.27;;
15358;SDS011;7779;49.596;11.070;2024-03-17T07:12:09;1.73;;;1.63;;
15358;SDS011;7779;49.596;11.070;2024-03-17T07:14:38;1.60;;;1.50;;
15358;SDS011;7779;49.596;11.070;2024-03-17T07:17:04;4.47;;;1.67;;
15358;SDS011;7779;49.596;11.070;2024-03-17T07:19:30;2.87;;;1.87;;
15358;SDS011;7779;49.596;11.070;2024-03-17T07:21:56;2.17;;;1.80;;
15358;SDS011;7779;49.596;11.070;2024-03-17T07:24:22;2.77;;;1.90;;
15358;SDS011;7779;49.596;11.070;2024-03-17T07:26:48;2.30;;;1.90;;
15358;SDS011;7779;49.596;11.070;2024-03-17T07:29:15;2.17;;;1.97;;
15358;SDS011;7779;49.596;11.070;2024-03-17T07:31:42;2.83;;;2.37;;
15358;SDS011;7779;49.596;11.070;2024-03-17T07:34:08;4.13;;;2.03;;
15358;SDS011;7779;49.596;11.070;2024-03-17T07:36:34;2.60;;;1.93;;
15358;SDS011;7779;49.596;11.070;2024-03-17T07:39:00;3.43;;;2.00;;
15358;SDS011;7779;49.596;11.070;2024-03-17T07:41:27;2.97;;;2.13;;
15358;SDS011;7779;49.596;11.070;2024-03-17T07:43:52;3.43;;;2.30;;
15358;SDS011;7779;49.596;11.070;2024-03-17T07:46:18;2.97;;;2.07;;
15358;SDS011;7779;49.596;11.070;2024-03-17T07:48:44;3.13;;;2.33;;
15358;SDS011;7779;49.596;11.070;2024-03-17T07:51:11;3.00;;;2.50;;
15358;SDS011;7779;49.596;11.070;2024-03-17T07:53:41;3.33;;;2.30;;
15358;SDS011;7779;49.596;11.070;2024-03-17T07:56:08;2.63;;;2.00;;
15358;SDS011;7779;49.596;11.070;2024-03-17T07:58:36;2.47;;;2.20;;
15358;SDS011;7779;49.596;11.070;2024-03-17T08:01:10;4.50;;;2.30;;
15358;SDS011;7779;49.596;11.070;2024-03-17T08:03:39;3.03;;;2.50;;
15358;SDS011;7779;49.596;11.070;2024-03-17T08:06:07;4.77;;;2.50;;
15358;SDS011;7779;49.596;11.070;2024-03-17T08:08:33;2.47;;;2.20;;
15358;SDS011;7779;49.596;11.070;2024-03-17T08:11:00;3.03;;;2.30;;
15358;SDS011;7779;49.596;11.070;2024-03-17T08:13:29;2.57;;;2.00;;
15358;SDS011;7779;49.596;11.070;2024-03-17T08:16:04;2.60;;;2.33;;
15358;SDS011;7779;49.596;11.070;2024-03-17T08:18:32;3.10;;;2.13;;
15358;SDS011;7779;49.596;11.070;2024-03-17T08:20:59;2.83;;;2.17;;
15358;SDS011;7779;49.596;11.070;2024-03-17T08:23:26;2.40;;;1.70;;
15358;SDS011;7779;49.596;11.070;2024-03-17T08:25:56;2.97;;;2.50;;
15358;SDS011;7779;49.596;11.070;2024-03-17T08:28:24;4.93;;;2.33;;
15358;SDS011;7779;49.596;11.070;2024-03-17T08:30:55;3.20;;;2.13;;
15358;SDS011;7779;49.596;11.070;2024-03-17T08:33:25;2.43;;;2.23;;
15358;SDS011;7779;49.596;11.070;2024-03-17T08:35:59;2.83;;;2.27;;
15358;SDS011;7779;49.596;11.070;2024-03-17T08:38:28;2.50;;;2.07;;
15358;SDS011;7779;49.596;11.070;2024-03-17T08:40:56;3.20;;;2.37;;
15358;SDS011;7779;49.596;11.070;2024-03-17T08:43:26;2.77;;;2.37;;
15358;SDS011;7779;49.596;11.070;2024-03-17T08:48:24;2.90;;;2.20;;
15358;SDS011;7779;49.596;11.070;2024-03-17T08:50:51;3.63;;;2.37;;
15358;SDS011;7779;49.596;11.070;2024-03-17T08:53:18;3.20;;;2.20;;
15358;SDS011;7779;49.596;11.070;2024-03-17T08:55:45;2.77;;;2.20;;
15358;SDS011;7779;49.596;11.070;2024-03-17T08:58:11;3.13;;;2.40;;
15358;SDS011;7779;49.596;11.070;2024-03-17T09:00:36;2.73;;;2.13;;
15358;SDS011;7779;49.596;11.070;2024-03-17T09:03:03;2.20;;;2.00;;
15358;SDS011;7779;49.596;11.070;2024-03-17T09:05:29;2.47;;;2.10;;
15358;SDS011;7779;49.596;11.070;2024-03-17T09:07:58;2.57;;;2.10;;
15358;SDS011;7779;49.596;11.070;2024-03-17T09:10:24;3.53;;;2.30;;
15358;SDS011;7779;49.596;11.070;2024-03-17T09:12:50;2.53;;;1.93;;
15358;SDS011;7779;49.596;11.070;2024-03-17T09:15:15;2.50;;;2.30;;
15358;SDS011;7779;49.596;11.070;2024-03-17T09:17:41;3.10;;;2.17;;
15358;SDS011;7779;49.596;11.070;2024-03-17T09:20:08;2.43;;;1.93;;
15358;SDS011;7779;49.596;11.070;2024-03-17T09:22:37;3.27;;;2.17;;
15358;SDS011;7779;49.596;11.070;2024-03-17T09:25:06;2.40;;;1.80;;
15358;SDS011;7779;49.596;11.070;2024-03-17T09:27:33;2.30;;;2.10;;
15358;SDS011;7779;49.596;11.070;2024-03-17T09:30:02;2.00;;;1.67;;
15358;SDS011;7779;49.596;11.070;2024-03-17T09:32:34;2.70;;;2.07;;
15358;SDS011;7779;49.596;11.070;2024-03-17T09:35:03;3.43;;;1.90;;
15358;SDS011;7779;49.596;11.070;2024-03-17T09:37:30;2.00;;;1.90;;
15358;SDS011;7779;49.596;11.070;2024-03-17T09:39:57;2.00;;;1.80;;
15358;SDS011;7779;49.596;11.070;2024-03-17T09:42:24;2.23;;;1.93;;
15358;SDS011;7779;49.596;11.070;2024-03-17T09:44:52;2.03;;;1.83;;
15358;SDS011;7779;49.596;11.070;2024-03-17T09:47:22;2.93;;;2.10;;
15358;SDS011;7779;49.596;11.070;2024-03-17T09:49:51;2.20;;;2.00;;
15358;SDS011;7779;49.596;11.070;2024-03-17T09:52:21;3.50;;;2.30;;
15358;SDS011;7779;49.596;11.070;2024-03-17T09:54:53;2.10;;;1.90;;
15358;SDS011;7779;49.596;11.070;2024-03-17T09:57:42;3.03;;;2.20;;
15358;SDS011;7779;49.596;11.070;2024-03-17T10:00:10;3.30;;;2.10;;
15358;SDS011;7779;49.596;11.070;2024-03-17T10:02:45;2.70;;;1.87;;
15358;SDS011;7779;49.596;11.070;2024-03-17T10:05:22;3.17;;;2.10;;
15358;SDS011;7779;49.596;11.070;2024-03-17T10:07:50;2.20;;;2.00;;
15358;SDS011;7779;49.596;11.070;2024-03-17T10:10:17;2.20;;;2.00;;
15358;SDS011;7779;49.596;11.070;2024-03-17T10:12:51;2.80;;;1.97;;
15358;SDS011;7779;49.596;11.070;2024-03-17T10:15:18;2.27;;;1.97;;
15358;SDS011;7779;49.596;11.070;2024-03-17T10:17:48;3.03;;;2.00;;
15358;SDS011;7779;49.596;11.070;2024-03-17T10:20:15;2.00;;;1.80;;
15358;SDS011;7779;49.596;11.070;2024-03-17T10:25:26;2.43;;;1.60;;
15358;SDS011;7779;49.596;11.070;2024-03-17T10:27:54;2.07;;;1.87;;
15358;SDS011;7779;49.596;11.070;2024-03-17T10:30:22;2.83;;;2.30;;
15358;SDS011;7779;49.596;11.070;2024-03-17T10:32:58;3.00;;;2.07;;
15358;SDS011;7779;49.596;11.070;2024-03-17T10:35:35;2.50;;;2.30;;
15358;SDS011;7779;49.596;11.070;2024-03-17T10:38:04;2.73;;;2.43;;
15358;SDS011;7779;49.596;11.070;2024-03-17T10:40:32;2.80;;;2.20;;
15358;SDS011;7779;49.596;11.070;2024-03-17T10:43:01;2.40;;;2.20;;
15358;SDS011;7779;49.596;11.070;2024-03-17T10:45:27;2.83;;;2.40;;
15358;SDS011;7779;49.596;11.070;2024-03-17T10:48:01;2.27;;;2.07;;
15358;SDS011;7779;49.596;11.070;2024-03-17T10:50:31;2.93;;;2.60;;
15358;SDS011;7779;49.596;11.070;2024-03-17T10:53:06;2.97;;;2.20;;
15358;SDS011;7779;49.596;11.070;2024-03-17T10:55:45;3.03;;;2.50;;
15358;SDS011;7779;49.596;11.070;2024-03-17T11:00:51;3.37;;;2.63;;
15358;SDS011;7779;49.596;11.070;2024-03-17T11:03:18;3.27;;;2.50;;
15358;SDS011;7779;49.596;11.070;2024-03-17T11:05:44;2.53;;;2.33;;
15358;SDS011;7779;49.596;11.070;2024-03-17T11:08:15;2.70;;;2.50;;
15358;SDS011;7779;49.596;11.070;2024-03-17T11:10:49;2.40;;;2.20;;
15358;SDS011;7779;49.596;11.070;2024-03-17T11:13:26;2.50;;;2.30;;
15358;SDS011;7779;49.596;11.070;2024-03-17T11:15:54;2.80;;;2.53;;
15358;SDS011;7779;49.596;11.070;2024-03-17T11:21:17;2.70;;;2.40;;
15358;SDS011;7779;49.596;11.070;2024-03-17T11:23:54;2.60;;;2.40;;
15358;SDS011;7779;49.596;11.070;2024-03-17T11:26:29;2.50;;;2.30;;
15358;SDS011;7779;49.596;11.070;2024-03-17T11:28:58;3.77;;;2.60;;
15358;SDS011;7779;49.596;11.070;2024-03-17T11:34:25;2.67;;;2.37;;
15358;SDS011;7779;49.596;11.070;2024-03-17T11:37:04;2.40;;;2.20;;
15358;SDS011;7779;49.596;11.070;2024-03-17T11:39:46;2.60;;;2.40;;
15358;SDS011;7779;49.596;11.070;2024-03-17T11:42:22;2.90;;;2.60;;
15358;SDS011;7779;49.596;11.070;2024-03-17T11:44:57;3.27;;;2.50;;
15358;SDS011;7779;49.596;11.070;2024-03-17T11:47:46;3.10;;;2.63;;
15358;SDS011;7779;49.596;11.070;2024-03-17T11:50:13;2.83;;;2.60;;
15358;SDS011;7779;49.596;11.070;2024-03-17T11:52:40;3.10;;;2.80;;
15358;SDS011;7779;49.596;11.070;2024-03-17T11:55:15;3.40;;;3.07;;
15358;SDS011;7779;49.596;11.070;2024-03-17T11:57:43;3.53;;;2.87;;
15358;SDS011;7779;49.596;11.070;2024-03-17T12:00:20;3.03;;;2.57;;
15358;SDS011;7779;49.596;11.070;2024-03-17T12:02:48;3.03;;;2.83;;
15358;SDS011;7779;49.596;11.070;2024-03-17T12:05:15;3.40;;;2.50;;
15358;SDS011;7779;49.596;11.070;2024-03-17T12:07:44;3.20;;;2.63;;
15358;SDS011;7779;49.596;11.070;2024-03-17T12:10:12;2.90;;;2.47;;
15358;SDS011;7779;49.596;11.070;2024-03-17T12:12:39;2.77;;;2.57;;
15358;SDS011;7779;49.596;11.070;2024-03-17T12:15:18;3.10;;;2.60;;
15358;SDS011;7779;49.596;11.070;2024-03-17T12:17:45;2.93;;;2.60;;
15358;SDS011;7779;49.596;11.070;2024-03-17T12:20:18;2.97;;;2.77;;
15358;SDS011;7779;49.596;11.070;2024-03-17T12:22:45;3.77;;;3.20;;
15358;SDS011;7779;49.596;11.070;2024-03-17T12:25:19;2.90;;;2.60;;
15358;SDS011;7779;49.596;11.070;2024-03-17T12:27:46;4.33;;;3.07;;
15358;SDS011;7779;49.596;11.070;2024-03-17T12:30:13;4.00;;;3.30;;
15358;SDS011;7779;49.596;11.070;2024-03-17T12:32:40;3.23;;;2.90;;
15358;SDS011;7779;49.596;11.070;2024-03-17T12:35:14;3.10;;;2.50;;
15358;SDS011;7779;49.596;11.070;2024-03-17T12:37:43;3.27;;;2.70;;
15358;SDS011;7779;49.596;11.070;2024-03-17T12:40:21;3.17;;;2.83;;
15358;SDS011;7779;49.596;11.070;2024-03-17T12:42:48;3.47;;;2.77;;
15358;SDS011;7779;49.596;11.070;2024-03-17T12:45:18;3.50;;;3.00;;
15358;SDS011;7779;49.596;11.070;2024-03-17T12:47:48;3.00;;;2.70;;
15358;SDS011;7779;49.596;11.070;2024-03-17T12:50:17;3.30;;;2.57;;
15358;SDS011;7779;49.596;11.070;2024-03-17T12:52:55;2.90;;;2.60;;
15358;SDS011;7779;49.596;11.070;2024-03-17T12:55:21;3.60;;;3.00;;
15358;SDS011;7779;49.596;11.070;2024-03-17T12:58:06;3.50;;;2.90;;
15358;SDS011;7779;49.596;11.070;2024-03-17T13:00:59;3.20;;;2.90;;
15358;SDS011;7779;49.596;11.070;2024-03-17T13:03:36;3.43;;;3.13;;
15358;SDS011;7779;49.596;11.070;2024-03-17T13:06:05;3.10;;;2.83;;
15358;SDS011;7779;49.596;11.070;2024-03-17T13:08:34;3.50;;;3.20;;
15358;SDS011;7779;49.596;11.070;2024-03-17T13:11:01;3.57;;;3.10;;
15358;SDS011;7779;49.596;11.070;2024-03-17T13:13:34;3.37;;;3.10;;
15358;SDS011;7779;49.596;11.070;2024-03-17T13:16:00;3.87;;;3.00;;
15358;SDS011;7779;49.596;11.070;2024-03-17T13:18:26;3.70;;;3.30;;
15358;SDS011;7779;49.596;11.070;2024-03-17T13:20:51;4.00;;;2.97;;
15358;SDS011;7779;49.596;11.070;2024-03-17T13:23:23;3.27;;;2.80;;
15358;SDS011;7779;49.596;11.070;2024-03-17T13:25:51;3.10;;;2.80;;
15358;SDS011;7779;49.596;11.070;2024-03-17T13:28:17;3.90;;;3.03;;
15358;SDS011;7779;49.596;11.070;2024-03-17T13:30:42;3.50;;;3.20;;
15358;SDS011;7779;49.596;11.070;2024-03-17T13:33:08;3.33;;;3.03;;
15358;SDS011;7779;49.596;11.070;2024-03-17T13:35:36;3.70;;;2.93;;
15358;SDS011;7779;49.596;11.070;2024-03-17T13:38:04;3.70;;;3.13;;
15358;SDS011;7779;49.596;11.070;2024-03-17T13:40:35;3.67;;;3.10;;
15358;SDS011;7779;49.596;11.070;2024-03-17T13:43:03;5.27;;;2.90;;
15358;SDS011;7779;49.596;11.070;2024-03-17T13:45:37;4.70;;;2.90;;
15358;SDS011;7779;49.596;11.070;2024-03-17T13:48:05;3.77;;;2.97;;
15358;SDS011;7779;49.596;11.070;2024-03-17T13:50:35;4.07;;;2.87;;
15358;SDS011;7779;49.596;11.070;2024-03-17T13:53:09;3.57;;;3.03;;
15358;SDS011;7779;49.596;11.070;2024-03-17T13:55:36;3.37;;;3.07;;
15358;SDS011;7779;49.596;11.070;2024-03-17T13:58:03;3.30;;;3.00;;
15358;SDS011;7779;49.596;11.070;2024-03-17T14:00:29;3.93;;;3.30;;
15358;SDS011;7779;49.596;11.070;2024-03-17T14:02:56;4.10;;;3.40;;
15358;SDS011;7779;49.596;11.070;2024-03-17T14:05:23;3.50;;;3.20;;
15358;SDS011;7779;49.596;11.070;2024-03-17T14:07:51;4.50;;;3.20;;
15358;SDS011;7779;49.596;11.070;2024-03-17T14:10:24;3.50;;;3.10;;
15358;SDS011;7779;49.596;11.070;2024-03-17T14:12:51;3.60;;;3.30;;
15358;SDS011;7779;49.596;11.070;2024-03-17T14:15:18;3.27;;;2.97;;
15358;SDS011;7779;49.596;11.070;2024-03-17T14:17:45;3.60;;;3.30;;
15358;SDS011;7779;49.596;11.070;2024-03-17T14:20:12;3.57;;;3.20;;
15358;SDS011;7779;49.596;11.070;2024-03-17T14:22:42;4.03;;;3.20;;
15358;SDS011;7779;49.596;11.070;2024-03-17T14:25:14;4.23;;;3.40;;
15358;SDS011;7779;49.596;11.070;2024-03-17T14:27:45;3.10;;;2.70;;
15358;SDS011;7779;49.596;11.070;2024-03-17T14:30:14;3.40;;;3.10;;
15358;SDS011;7779;49.596;11.070;2024-03-17T14:32:42;3.30;;;3.00;;
15358;SDS011;7779;49.596;11.070;2024-03-17T14:35:12;4.33;;;3.40;;
15358;SDS011;7779;49.596;11.070;2024-03-17T14:37:43;3.20;;;2.90;;
15358;SDS011;7779;49.596;11.070;2024-03-17T14:40:13;5.07;;;3.33;;
15358;SDS011;7779;49.596;11.070;2024-03-17T14:42:46;3.60;;;2.90;;
15358;SDS011;7779;49.596;11.070;2024-03-17T14:45:13;3.47;;;2.93;;
15358;SDS011;7779;49.596;11.070;2024-03-17T14:47:39;4.10;;;3.10;;
15358;SDS011;7779;49.596;11.070;2024-03-17T14:50:05;4.10;;;3.50;;
15358;SDS011;7779;49.596;11.070;2024-03-17T14:52:32;3.00;;;2.73;;
15358;SDS011;7779;49.596;11.070;2024-03-17T14:54:57;3.97;;;3.00;;
15358;SDS011;7779;49.596;11.070;2024-03-17T14:57:23;3.37;;;2.57;;
15358;SDS011;7779;49.596;11.070;2024-03-17T14:59:49;3.07;;;2.60;;
15358;SDS011;7779;49.596;11.070;2024-03-17T15:02:15;3.47;;;2.80;;
15358;SDS011;7779;49.596;11.070;2024-03-17T15:04:40;4.87;;;3.00;;
15358;SDS011;7779;49.596;11.070;2024-03-17T15:07:06;3.27;;;2.97;;
15358;SDS011;7779;49.596;11.070;2024-03-17T15:09:33;4.47;;;2.87;;
15358;SDS011;7779;49.596;11.070;2024-03-17T15:11:59;3.13;;;2.83;;